Time;durP1;ratioP1;P1;durP2;ratioP2;P2;SDS_P1;SDS_P2;PMS_P1;PMS_P2;Temp;Humidity;BMP_temperature;BMP_pressure;BME280_temperature;BME280_humidity;BME280_pressure;Samples;Min_cycle;Max_cycle;Signal;HPM_P1;HPM_P2
2023/05/16 00:01:47;;;;;;;1.17;0.85;;;;;;;24.60;44.24;101771.13;5047377;27;96522;-75
2023/05/16 00:04:14;;;;;;;1.10;0.90;;;;;;;24.60;44.18;101773.88;5047075;27;96881;-75
2023/05/16 00:06:41;;;;;;;2.15;0.80;;;;;;;24.59;44.05;101777.63;5058422;27;99238;-75
2023/05/16 00:09:07;;;;;;;1.55;0.98;;;;;;;24.59;44.00;101771.28;5053796;27;96970;-74
2023/05/16 00:11:34;;;;;;;0.73;0.68;;;;;;;24.60;44.13;101775.75;5048645;27;96697;-75
2023/05/16 00:14:01;;;;;;;1.63;0.90;;;;;;;24.59;44.16;101790.50;5047796;27;99783;-74
2023/05/16 00:16:28;;;;;;;1.80;0.80;;;;;;;24.58;44.14;101778.69;5048031;27;98648;-74
2023/05/16 00:18:59;;;;;;;1.00;0.70;;;;;;;24.58;44.05;101789.66;5048397;27;96772;-75
2023/05/16 00:21:27;;;;;;;2.25;1.00;;;;;;;24.57;44.12;101790.69;5052386;27;96565;-75
2023/05/16 00:23:53;;;;;;;0.90;0.70;;;;;;;24.58;44.19;101794.28;5048779;27;97358;-75
2023/05/16 00:26:20;;;;;;;1.25;0.85;;;;;;;24.57;44.05;101789.84;5046409;27;98400;-74
2023/05/16 00:28:47;;;;;;;2.22;0.90;;;;;;;24.58;43.83;101786.06;5052968;27;96599;-75
2023/05/16 00:31:14;;;;;;;1.20;0.60;;;;;;;24.56;44.07;101788.97;5045479;27;96615;-75
2023/05/16 00:33:41;;;;;;;1.73;0.80;;;;;;;24.56;43.89;101791.72;5050444;27;100373;-75
2023/05/16 00:36:08;;;;;;;1.00;0.68;;;;;;;24.57;44.21;101787.09;5046308;27;96245;-75
2023/05/16 00:38:35;;;;;;;1.17;0.80;;;;;;;24.57;44.31;101787.09;5049032;27;96779;-75
2023/05/16 00:41:03;;;;;;;1.15;0.70;;;;;;;24.56;43.72;101788.97;5053896;27;96029;-75
2023/05/16 00:43:30;;;;;;;1.50;0.80;;;;;;;24.56;43.93;101791.72;5052287;27;96842;-75
2023/05/16 00:45:56;;;;;;;1.17;0.70;;;;;;;24.55;43.83;101792.75;5050807;27;96035;-74
2023/05/16 00:48:24;;;;;;;1.08;0.63;;;;;;;24.55;43.98;101786.41;5050359;27;97076;-75
2023/05/16 00:50:52;;;;;;;1.70;0.95;;;;;;;24.55;44.00;101795.50;5048632;27;96608;-74
2023/05/16 00:53:21;;;;;;;0.85;0.57;;;;;;;24.54;43.65;101799.28;5045012;27;98005;-75
2023/05/16 00:55:47;;;;;;;1.00;0.70;;;;;;;24.55;43.78;101795.50;5056924;27;98145;-75
2023/05/16 00:58:15;;;;;;;1.70;0.80;;;;;;;24.54;43.84;101793.78;5055707;27;96720;-75
2023/05/16 01:00:42;;;;;;;1.15;0.80;;;;;;;24.53;43.79;101797.56;5056566;27;96342;-75
2023/05/16 01:03:10;;;;;;;1.58;0.95;;;;;;;24.54;43.76;101788.31;5052963;27;96355;-75
2023/05/16 01:05:37;;;;;;;1.23;0.70;;;;;;;24.53;43.72;101802.22;5062379;27;96813;-74
2023/05/16 01:08:04;;;;;;;1.10;0.60;;;;;;;24.52;43.84;101801.31;5061110;27;96017;-75
2023/05/16 01:10:59;;;;;;;1.35;0.68;;;;;;;24.54;43.79;101813.03;5061793;27;96224;-75
2023/05/16 01:13:42;;;;;;;1.58;0.70;;;;;;;24.51;43.71;101801.50;5049298;27;99648;-75
2023/05/16 01:16:21;;;;;;;1.25;0.70;;;;;;;24.50;43.93;101803.41;5054849;27;96863;-74
2023/05/16 01:19:05;;;;;;;1.98;0.75;;;;;;;24.49;43.85;101807.16;5052757;27;97260;-75
2023/05/16 01:21:49;;;;;;;1.63;0.70;;;;;;;24.50;43.73;101810.78;5054021;27;96782;-74
2023/05/16 01:24:31;;;;;;;1.75;1.13;;;;;;;24.49;43.93;101809.91;5053335;27;96818;-74
2023/05/16 01:26:59;;;;;;;1.00;0.70;;;;;;;24.48;43.81;101813.69;5049363;27;96941;-74
2023/05/16 01:29:26;;;;;;;2.05;1.00;;;;;;;24.48;43.62;101810.94;5064401;27;96847;-75
2023/05/16 01:31:53;;;;;;;0.90;0.60;;;;;;;24.49;43.86;101811.81;5048279;27;97571;-74
2023/05/16 01:34:20;;;;;;;1.20;0.82;;;;;;;24.49;43.92;101809.06;5060003;27;97121;-75
2023/05/16 01:36:51;;;;;;;1.75;0.65;;;;;;;24.49;43.88;101807.16;5065432;27;97704;-74
2023/05/16 01:39:36;;;;;;;1.10;0.60;;;;;;;24.49;43.70;101807.16;5061421;27;96559;-74
2023/05/16 01:42:08;;;;;;;1.63;0.65;;;;;;;24.46;43.68;101802.03;5065838;27;96505;-75
2023/05/16 01:45:11;;;;;;;1.45;0.70;;;;;;;24.47;43.75;101811.97;5057540;27;98554;-75
2023/05/16 01:47:43;;;;;;;1.10;0.55;;;;;;;24.45;44.00;101800.31;5049810;27;97653;-74
2023/05/16 01:50:18;;;;;;;1.10;0.60;;;;;;;24.46;43.81;101813.00;5059299;27;96686;-75
2023/05/16 01:52:52;;;;;;;0.88;0.60;;;;;;;24.46;43.50;101814.91;5059090;27;96691;-75
2023/05/16 01:55:48;;;;;;;1.08;0.70;;;;;;;24.45;43.48;101816.78;5051356;27;100025;-75
2023/05/16 01:58:19;;;;;;;1.42;0.68;;;;;;;24.44;43.83;101808.72;5035839;27;100666;-75
2023/05/16 02:00:45;;;;;;;1.63;0.70;;;;;;;24.44;43.77;101819.72;5043352;27;96938;-75
2023/05/16 02:03:12;;;;;;;1.60;0.70;;;;;;;24.43;43.66;101815.25;5031389;27;97953;-75
2023/05/16 02:05:38;;;;;;;1.58;0.60;;;;;;;24.44;43.37;101822.47;5031133;27;99334;-75
2023/05/16 02:08:05;;;;;;;2.03;0.80;;;;;;;24.44;43.48;101823.31;5044920;27;99115;-75
2023/05/16 02:10:32;;;;;;;1.60;0.80;;;;;;;24.44;43.58;101825.22;5043403;27;97131;-74
2023/05/16 02:12:58;;;;;;;1.60;0.70;;;;;;;24.44;43.78;101823.31;5037655;27;96765;-75
2023/05/16 02:15:25;;;;;;;1.65;0.70;;;;;;;24.44;43.37;101825.22;5021122;27;99388;-75
2023/05/16 02:17:52;;;;;;;1.10;0.65;;;;;;;24.44;43.39;101830.69;5043959;27;100467;-75
2023/05/16 02:20:19;;;;;;;1.70;0.93;;;;;;;24.43;43.52;101835.34;5045833;27;96743;-75
2023/05/16 02:22:46;;;;;;;1.98;0.70;;;;;;;24.43;43.58;101840.81;5056902;27;98423;-75
2023/05/16 02:25:14;;;;;;;2.70;0.80;;;;;;;24.42;43.71;101833.63;5046850;27;97849;-74
2023/05/16 02:27:42;;;;;;;1.83;0.50;;;;;;;24.43;43.59;101837.22;5047295;27;98172;-75
2023/05/16 02:30:10;;;;;;;1.35;0.75;;;;;;;24.43;43.45;101835.34;5046211;27;96800;-75
2023/05/16 02:32:38;;;;;;;1.90;0.63;;;;;;;24.43;43.63;101846.31;5043275;27;97020;-74
2023/05/16 02:35:06;;;;;;;0.90;0.65;;;;;;;24.42;43.65;101841.88;5045003;27;98681;-75
2023/05/16 02:37:32;;;;;;;1.88;0.80;;;;;;;24.42;43.50;101844.59;5042587;27;97271;-75
2023/05/16 02:39:59;;;;;;;1.27;0.60;;;;;;;24.41;43.61;101837.41;5047171;27;96678;-74
2023/05/16 02:42:29;;;;;;;0.82;0.43;;;;;;;24.40;43.59;101844.78;5031511;27;96796;-75
2023/05/16 02:44:56;;;;;;;0.88;0.50;;;;;;;24.41;43.36;101848.38;5042620;27;96973;-75
2023/05/16 02:47:23;;;;;;;1.48;0.60;;;;;;;24.40;43.37;101850.28;5045909;27;96863;-74
2023/05/16 02:49:51;;;;;;;1.33;0.80;;;;;;;24.40;43.23;101855.75;5043794;27;96898;-74
2023/05/16 02:52:18;;;;;;;1.60;0.80;;;;;;;24.42;43.38;101865.72;5027685;27;97002;-74
2023/05/16 02:54:45;;;;;;;1.58;0.52;;;;;;;24.39;43.42;101861.44;5045549;27;98000;-75
2023/05/16 02:57:25;;;;;;;1.63;0.70;;;;;;;24.39;43.29;101861.44;5045318;27;97834;-74
2023/05/16 02:59:52;;;;;;;1.13;0.65;;;;;;;24.39;43.57;101872.41;5042769;27;96720;-74
2023/05/16 03:02:18;;;;;;;1.70;0.70;;;;;;;24.39;43.33;101872.41;5042512;27;97129;-75
2023/05/16 03:04:45;;;;;;;1.55;0.80;;;;;;;24.38;43.38;101868.81;5047510;27;99265;-74
2023/05/16 03:07:11;;;;;;;2.40;1.00;;;;;;;24.38;43.17;101867.97;5042215;27;96800;-74
2023/05/16 03:09:38;;;;;;;2.67;0.70;;;;;;;24.38;43.08;101865.22;5043540;27;96973;-75
2023/05/16 03:12:04;;;;;;;2.30;0.80;;;;;;;24.37;43.34;101878.09;5047830;27;96671;-75
2023/05/16 03:14:33;;;;;;;1.55;0.60;;;;;;;24.37;43.15;101874.47;5040967;27;99810;-75
2023/05/16 03:17:01;;;;;;;2.17;0.93;;;;;;;24.37;43.20;101877.22;5042816;27;97429;-75
2023/05/16 03:19:28;;;;;;;1.00;0.50;;;;;;;24.37;43.21;101877.22;5049778;27;96847;-75
2023/05/16 03:21:55;;;;;;;1.15;0.70;;;;;;;24.36;43.20;101870.88;5046006;27;96580;-75
2023/05/16 03:24:21;;;;;;;2.45;0.70;;;;;;;24.35;43.14;101877.41;5041407;27;96882;-75
2023/05/16 03:26:48;;;;;;;2.30;1.35;;;;;;;24.35;43.15;101877.41;5044331;27;97935;-74
2023/05/16 03:29:18;;;;;;;1.05;0.60;;;;;;;24.36;43.22;101881.00;5041743;27;97143;-75
2023/05/16 03:31:45;;;;;;;2.17;0.80;;;;;;;24.35;42.91;101879.28;5026723;27;96669;-75
2023/05/16 03:34:11;;;;;;;1.75;0.80;;;;;;;24.35;43.41;101887.53;5044993;27;97012;-74
2023/05/16 03:36:40;;;;;;;1.13;0.55;;;;;;;24.34;42.91;101881.19;5040319;27;96813;-75
2023/05/16 03:39:07;;;;;;;1.08;0.52;;;;;;;24.34;43.37;101888.56;5043244;27;97715;-74
2023/05/16 03:41:34;;;;;;;2.10;0.70;;;;;;;24.34;43.48;101891.31;5042984;27;96800;-75
2023/05/16 03:44:00;;;;;;;1.40;0.70;;;;;;;24.34;42.68;101900.41;5047204;27;96836;-75
2023/05/16 03:46:27;;;;;;;1.55;0.70;;;;;;;24.33;43.21;101895.94;5031992;27;99923;-75
2023/05/16 03:48:53;;;;;;;2.10;0.68;;;;;;;24.33;42.91;101901.44;5042838;27;97522;-75
2023/05/16 03:51:20;;;;;;;1.35;0.70;;;;;;;24.32;43.10;101902.44;5040927;27;97322;-75
2023/05/16 03:53:47;;;;;;;1.13;0.70;;;;;;;24.33;43.22;101906.06;5030709;27;96799;-75
2023/05/16 03:56:13;;;;;;;1.17;0.50;;;;;;;24.31;43.21;101900.75;5039655;27;97301;-75
2023/05/16 03:58:40;;;;;;;1.05;0.60;;;;;;;24.32;42.94;101913.44;5034670;27;97052;-75
2023/05/16 04:01:06;;;;;;;1.10;0.60;;;;;;;24.31;43.03;101906.22;5044742;27;97235;-74
2023/05/16 04:03:33;;;;;;;0.65;0.60;;;;;;;24.31;42.99;101908.97;5045194;27;97659;-75
2023/05/16 04:05:59;;;;;;;1.60;1.27;;;;;;;24.32;42.84;101909.84;5035797;27;96725;-74
2023/05/16 04:08:26;;;;;;;1.23;0.60;;;;;;;24.30;42.92;101912.75;5044415;27;99223;-75
2023/05/16 04:10:53;;;;;;;1.15;0.60;;;;;;;24.31;42.92;101913.59;5039222;27;97226;-75
2023/05/16 04:13:20;;;;;;;2.10;0.80;;;;;;;24.31;42.91;101913.59;5040464;27;97322;-74
2023/05/16 04:15:46;;;;;;;1.80;0.82;;;;;;;24.31;42.85;101919.09;5045680;27;98933;-74
2023/05/16 04:18:13;;;;;;;2.75;0.77;;;;;;;24.30;43.09;101918.25;5045294;27;97174;-75
2023/05/16 04:20:41;;;;;;;1.85;0.60;;;;;;;24.30;42.83;101920.13;5039523;27;96912;-75
2023/05/16 04:23:10;;;;;;;0.80;0.40;;;;;;;24.30;42.74;101928.38;5038675;27;96665;-74
2023/05/16 04:25:37;;;;;;;1.75;0.70;;;;;;;24.29;42.92;101933.00;5037780;27;96974;-74
2023/05/16 04:28:04;;;;;;;0.90;0.50;;;;;;;24.29;42.71;101932.16;5042316;27;97368;-74
2023/05/16 04:30:31;;;;;;;2.15;0.80;;;;;;;24.29;42.81;101934.88;5048208;27;96859;-74
2023/05/16 04:32:58;;;;;;;1.45;0.60;;;;;;;24.29;43.11;101938.50;5033405;27;96858;-74
2023/05/16 04:35:27;;;;;;;1.00;0.57;;;;;;;24.29;43.05;101940.38;5037141;27;98017;-74
2023/05/16 04:37:54;;;;;;;2.15;0.73;;;;;;;24.30;42.64;101942.09;5035764;27;96896;-75
2023/05/16 04:40:21;;;;;;;2.25;0.80;;;;;;;24.28;42.80;101945.00;5046628;27;97603;-75
2023/05/16 04:42:47;;;;;;;2.08;0.80;;;;;;;24.28;42.77;101944.16;5025470;27;98586;-74
2023/05/16 04:45:14;;;;;;;1.65;0.60;;;;;;;24.28;42.69;101946.91;5041342;27;96700;-75
2023/05/16 04:47:41;;;;;;;1.42;0.60;;;;;;;24.28;42.75;101945.00;5045989;27;96744;-75
2023/05/16 04:50:08;;;;;;;1.83;0.70;;;;;;;24.28;42.78;101952.41;5038323;27;96675;-75
2023/05/16 04:52:34;;;;;;;1.60;0.80;;;;;;;24.27;42.71;101959.78;5040743;27;97573;-75
2023/05/16 04:55:01;;;;;;;1.65;0.63;;;;;;;24.28;42.67;101961.47;5046085;27;97746;-74
2023/05/16 04:57:28;;;;;;;1.67;0.82;;;;;;;24.28;42.69;101957.88;5039998;27;97247;-74
2023/05/16 04:59:54;;;;;;;1.40;0.60;;;;;;;24.27;42.71;101958.91;5041874;27;96903;-75
2023/05/16 05:02:21;;;;;;;2.72;0.60;;;;;;;24.27;42.59;101956.16;5042015;27;99147;-74
2023/05/16 05:04:48;;;;;;;1.27;0.60;;;;;;;24.27;42.83;101964.41;5042572;27;97454;-74
2023/05/16 05:07:15;;;;;;;1.33;0.50;;;;;;;24.27;42.62;101964.41;5041430;27;97262;-75
2023/05/16 05:09:41;;;;;;;1.77;0.63;;;;;;;24.27;42.71;101967.16;5046877;27;96899;-75
2023/05/16 05:12:08;;;;;;;1.63;0.68;;;;;;;24.27;42.56;101968.00;5049362;27;97866;-74
2023/05/16 05:14:35;;;;;;;1.65;0.80;;;;;;;24.27;42.76;101967.16;5050579;27;97334;-74
2023/05/16 05:17:01;;;;;;;1.25;0.70;;;;;;;24.27;42.64;101967.16;5049344;27;97273;-75
2023/05/16 05:19:28;;;;;;;1.38;0.70;;;;;;;24.26;42.23;101973.63;5040007;27;96807;-75
2023/05/16 05:21:55;;;;;;;1.13;0.63;;;;;;;24.27;42.68;101972.63;5040500;27;98340;-75
2023/05/16 05:24:21;;;;;;;1.70;0.75;;;;;;;24.26;42.59;101970.88;5039778;27;96841;-74
2023/05/16 05:26:48;;;;;;;1.63;0.77;;;;;;;24.26;42.78;101976.38;5035889;27;97257;-75
2023/05/16 05:29:14;;;;;;;1.52;0.80;;;;;;;24.26;42.44;101976.38;5044497;27;96821;-74
2023/05/16 05:31:41;;;;;;;1.05;0.50;;;;;;;24.26;42.40;101976.38;5050224;27;97466;-74
2023/05/16 05:34:08;;;;;;;0.88;0.45;;;;;;;24.26;42.77;101977.25;5042363;27;96845;-75
2023/05/16 05:36:34;;;;;;;0.80;0.50;;;;;;;24.25;42.38;101985.66;5034421;27;96908;-75
2023/05/16 05:39:01;;;;;;;1.52;0.60;;;;;;;24.26;42.35;101995.59;5044055;27;97239;-75
2023/05/16 05:41:27;;;;;;;1.73;0.70;;;;;;;24.26;42.56;101990.09;5046725;27;97576;-74
2023/05/16 05:43:54;;;;;;;1.10;0.70;;;;;;;24.26;42.38;101981.88;5038488;27;97729;-74
2023/05/16 05:46:21;;;;;;;1.50;0.43;;;;;;;24.26;42.46;101987.38;5036122;27;96793;-75
2023/05/16 05:48:48;;;;;;;2.20;0.70;;;;;;;24.25;42.43;101985.66;5042992;27;96609;-75
2023/05/16 05:51:15;;;;;;;1.50;0.63;;;;;;;24.25;42.57;101991.13;5037508;27;96919;-74
2023/05/16 05:53:41;;;;;;;0.90;0.50;;;;;;;24.25;42.53;101997.47;5052299;27;96776;-75
2023/05/16 05:56:08;;;;;;;1.88;0.70;;;;;;;24.26;42.42;102004.69;5046700;27;96919;-75
2023/05/16 05:58:35;;;;;;;1.35;0.57;;;;;;;24.26;42.30;102003.84;5047124;27;96773;-74
2023/05/16 06:01:01;;;;;;;1.65;0.60;;;;;;;24.26;42.38;102004.69;5045757;27;96821;-74
2023/05/16 06:03:28;;;;;;;1.70;0.70;;;;;;;24.26;42.75;101999.19;5049111;27;97634;-74
2023/05/16 06:05:54;;;;;;;2.17;0.75;;;;;;;24.25;42.23;102000.22;5038307;27;96866;-74
2023/05/16 06:08:21;;;;;;;1.25;0.75;;;;;;;24.26;42.04;102003.84;5042562;27;97209;-74
2023/05/16 06:10:48;;;;;;;0.80;0.47;;;;;;;24.26;42.39;102003.84;5045854;27;97942;-75
2023/05/16 06:13:14;;;;;;;1.00;0.63;;;;;;;24.26;42.33;102006.56;5044899;27;97733;-74
2023/05/16 06:15:41;;;;;;;1.23;0.60;;;;;;;24.25;42.21;102002.13;5042875;27;96659;-75
2023/05/16 06:18:07;;;;;;;1.27;0.50;;;;;;;24.24;42.19;102009.50;5039604;27;96882;-75
2023/05/16 06:20:34;;;;;;;1.42;0.65;;;;;;;24.26;42.27;102009.31;5043572;27;96942;-74
2023/05/16 06:23:00;;;;;;;2.22;0.80;;;;;;;24.26;42.39;102015.66;5046438;27;97817;-74
2023/05/16 06:25:27;;;;;;;1.48;0.60;;;;;;;24.26;42.57;102020.31;5042068;27;97043;-74
2023/05/16 06:27:54;;;;;;;1.33;0.52;;;;;;;24.27;42.22;102024.78;5045539;27;96949;-73
2023/05/16 06:30:20;;;;;;;2.17;0.60;;;;;;;24.26;42.15;102020.31;5042941;27;96833;-74
2023/05/16 06:32:47;;;;;;;2.13;0.47;;;;;;;24.27;42.32;102019.31;5040817;27;97129;-74
2023/05/16 06:35:14;;;;;;;1.27;0.57;;;;;;;24.27;42.09;102017.41;5039539;27;96758;-74
2023/05/16 06:37:40;;;;;;;1.60;0.85;;;;;;;24.27;42.34;102016.56;5039514;27;97421;-74
2023/05/16 06:40:09;;;;;;;0.80;0.43;;;;;;;24.28;42.33;102029.25;5044948;27;96908;-74
2023/05/16 06:42:36;;;;;;;1.20;0.50;;;;;;;24.28;42.28;102023.78;5044474;27;97812;-74
2023/05/16 06:45:04;;;;;;;1.52;0.60;;;;;;;24.28;42.22;102024.63;5022112;27;96978;-72
2023/05/16 06:47:31;;;;;;;1.67;0.75;;;;;;;24.27;42.26;102020.16;5036627;27;96893;-72
2023/05/16 06:49:57;;;;;;;1.50;0.50;;;;;;;24.27;42.13;102017.41;5041523;27;96567;-73
2023/05/16 06:52:24;;;;;;;2.45;0.70;;;;;;;24.28;42.13;102030.13;5040678;27;97162;-73
2023/05/16 06:54:51;;;;;;;1.50;0.70;;;;;;;24.28;42.07;102026.50;5038013;27;96626;-73
2023/05/16 06:57:18;;;;;;;1.42;0.55;;;;;;;24.28;42.44;102023.78;5040497;27;96861;-73
2023/05/16 06:59:44;;;;;;;1.25;0.60;;;;;;;24.29;42.23;102028.22;5045706;27;96946;-73
2023/05/16 07:02:11;;;;;;;0.93;0.40;;;;;;;24.29;42.27;102023.59;5043294;27;97418;-73
2023/05/16 07:04:39;;;;;;;1.42;0.68;;;;;;;24.30;42.03;102024.47;5048916;27;96903;-73
2023/05/16 07:07:06;;;;;;;2.33;0.70;;;;;;;24.30;42.02;102032.69;5043572;27;96815;-73
2023/05/16 07:09:34;;;;;;;1.05;0.55;;;;;;;24.29;42.07;102029.09;5043557;27;97074;-73
2023/05/16 07:12:00;;;;;;;2.38;0.63;;;;;;;24.29;42.29;102031.84;5038659;27;96828;-73
2023/05/16 07:14:27;;;;;;;0.90;0.50;;;;;;;24.28;42.08;102035.59;5041899;27;97235;-73
2023/05/16 07:16:53;;;;;;;2.15;0.52;;;;;;;24.31;42.04;102037.16;5038039;27;97638;-73
2023/05/16 07:19:20;;;;;;;2.28;0.60;;;;;;;24.31;42.31;102039.91;5034665;27;96891;-73
2023/05/16 07:21:47;;;;;;;2.85;0.93;;;;;;;24.31;42.22;102037.16;5036344;27;97506;-73
2023/05/16 07:24:13;;;;;;;1.05;0.55;;;;;;;24.30;42.27;102036.31;5034043;27;97359;-73
2023/05/16 07:26:40;;;;;;;2.80;0.65;;;;;;;24.32;42.23;102034.25;5035674;27;96804;-73
2023/05/16 07:29:06;;;;;;;1.77;0.60;;;;;;;24.32;42.24;102041.63;5039311;27;96809;-73
2023/05/16 07:31:33;;;;;;;0.80;0.52;;;;;;;24.32;42.08;102041.63;5035602;27;97744;-73
2023/05/16 07:34:00;;;;;;;2.15;0.60;;;;;;;24.33;42.36;102046.09;5042189;27;96821;-72
2023/05/16 07:36:26;;;;;;;1.17;0.50;;;;;;;24.32;42.36;102045.22;5050870;27;96723;-73
2023/05/16 07:38:53;;;;;;;1.38;0.60;;;;;;;24.32;42.11;102041.63;5035106;27;96831;-73
2023/05/16 07:41:20;;;;;;;3.20;0.98;;;;;;;24.33;42.15;102046.09;5032480;27;97721;-73
2023/05/16 07:43:47;;;;;;;1.73;0.60;;;;;;;24.32;41.93;102042.47;5033985;27;96825;-73
2023/05/16 07:46:13;;;;;;;1.70;0.70;;;;;;;24.34;42.25;102037.69;5041367;27;97588;-73
2023/05/16 07:48:40;;;;;;;1.05;0.60;;;;;;;24.34;41.82;102050.53;5042040;27;96871;-73
2023/05/16 07:51:06;;;;;;;1.83;0.70;;;;;;;24.35;42.16;102044.03;5030522;27;96858;-74
2023/05/16 07:53:33;;;;;;;1.17;0.50;;;;;;;24.34;42.18;102048.66;5028810;27;97254;-73
2023/05/16 07:56:00;;;;;;;2.80;0.50;;;;;;;24.35;42.31;102057.75;5028151;27;96885;-73
2023/05/16 07:58:26;;;;;;;2.03;0.55;;;;;;;24.35;42.10;102057.75;5029575;27;98119;-74
2023/05/16 08:00:53;;;;;;;2.30;0.50;;;;;;;24.36;42.31;102059.47;5029593;27;96819;-73
2023/05/16 08:03:20;;;;;;;2.45;0.82;;;;;;;24.35;41.98;102052.25;5049004;27;97428;-74
2023/05/16 08:05:47;;;;;;;2.17;0.73;;;;;;;24.35;42.10;102055.88;5049381;27;96852;-73
2023/05/16 08:08:14;;;;;;;2.50;0.82;;;;;;;24.36;42.10;102056.72;5036103;27;96864;-73
2023/05/16 08:10:41;;;;;;;1.08;0.57;;;;;;;24.36;41.85;102054.84;5050667;27;96765;-72
2023/05/16 08:13:08;;;;;;;0.90;0.50;;;;;;;24.36;41.94;102048.50;5031419;27;97253;-73
2023/05/16 08:15:35;;;;;;;1.40;0.75;;;;;;;24.36;42.28;102043.00;5012957;27;96862;-73
2023/05/16 08:18:02;;;;;;;2.45;0.93;;;;;;;24.36;41.93;102049.34;5030675;27;97384;-73
2023/05/16 08:20:29;;;;;;;2.60;1.05;;;;;;;24.37;42.19;102055.69;5030671;27;97311;-73
2023/05/16 08:22:55;;;;;;;2.13;0.80;;;;;;;24.37;42.11;102044.72;5033144;27;96804;-73
2023/05/16 08:25:22;;;;;;;1.73;0.82;;;;;;;24.38;41.99;102049.19;5034748;27;96870;-73
2023/05/16 08:27:50;;;;;;;2.10;0.75;;;;;;;24.37;42.15;102045.56;5032667;27;96836;-72
2023/05/16 08:30:16;;;;;;;2.03;0.77;;;;;;;24.37;41.85;102051.06;5034263;27;97658;-73
2023/05/16 08:32:43;;;;;;;1.50;0.65;;;;;;;24.38;42.00;102044.53;5049131;27;96649;-72
2023/05/16 08:35:10;;;;;;;0.90;0.60;;;;;;;24.39;41.79;102046.25;5046996;27;97597;-73
2023/05/16 08:37:36;;;;;;;1.80;0.57;;;;;;;24.39;41.69;102048.16;5048159;27;98120;-73
2023/05/16 08:40:07;;;;;;;1.92;0.70;;;;;;;24.38;41.94;102050.03;5030371;27;98292;-73
2023/05/16 08:42:34;;;;;;;4.72;0.82;;;;;;;24.40;41.86;102058.09;5046669;27;97175;-73
2023/05/16 08:45:01;;;;;;;2.35;0.88;;;;;;;24.39;41.67;102054.50;5046445;27;97415;-73
2023/05/16 08:47:30;;;;;;;4.50;1.00;;;;;;;24.41;41.83;102048.84;5037212;27;96950;-73
2023/05/16 08:49:59;;;;;;;1.17;0.60;;;;;;;24.40;41.67;102047.13;5046208;27;96720;-73
2023/05/16 08:52:30;;;;;;;1.25;0.60;;;;;;;24.39;41.87;102048.16;5041490;27;97265;-73
2023/05/16 08:55:00;;;;;;;4.07;1.05;;;;;;;24.40;41.57;102045.22;5035525;27;97094;-73
2023/05/16 08:57:32;;;;;;;1.58;0.80;;;;;;;24.40;41.72;102042.47;5039902;27;98672;-72
2023/05/16 08:59:59;;;;;;;3.78;0.85;;;;;;;24.40;41.85;102047.13;5036176;27;96702;-73
2023/05/16 09:02:29;;;;;;;1.80;0.90;;;;;;;24.41;41.52;102046.09;5043686;27;96760;-73
2023/05/16 09:04:56;;;;;;;2.17;0.77;;;;;;;24.41;41.47;102048.84;5036392;27;97059;-73
2023/05/16 09:07:23;;;;;;;2.00;0.75;;;;;;;24.40;41.60;102044.38;5037017;27;97881;-73
2023/05/16 09:09:50;;;;;;;2.58;0.98;;;;;;;24.40;41.77;102038.88;5041657;27;97249;-73
2023/05/16 09:12:16;;;;;;;3.47;0.80;;;;;;;24.41;41.66;102032.38;5044371;27;97089;-73
2023/05/16 09:14:44;;;;;;;1.95;0.93;;;;;;;24.40;41.54;102039.75;5040148;27;96746;-73
2023/05/16 09:17:11;;;;;;;1.50;0.80;;;;;;;24.42;41.53;102035.97;5037803;27;98798;-74
2023/05/16 09:19:40;;;;;;;1.55;0.77;;;;;;;24.41;41.42;102043.34;5040676;27;97081;-74
2023/05/16 09:22:14;;;;;;;1.98;0.70;;;;;;;24.42;41.72;102045.06;5015724;27;96950;-73
2023/05/16 09:24:42;;;;;;;2.00;0.70;;;;;;;24.42;41.50;102057.94;5030726;27;96881;-74
2023/05/16 09:27:13;;;;;;;4.28;1.20;;;;;;;24.42;41.48;102055.19;5030397;27;96863;-73
2023/05/16 09:29:41;;;;;;;3.10;0.80;;;;;;;24.42;41.30;102060.69;5045146;27;97428;-73
2023/05/16 09:32:10;;;;;;;2.00;0.80;;;;;;;24.42;41.49;102056.03;5029321;27;96974;-74
2023/05/16 09:34:38;;;;;;;2.83;1.15;;;;;;;24.42;41.49;102063.44;5039429;27;96822;-74
2023/05/16 09:37:05;;;;;;;1.67;0.75;;;;;;;24.42;41.36;102069.78;5048215;27;98067;-73
2023/05/16 09:39:32;;;;;;;2.60;1.08;;;;;;;24.41;41.49;102059.81;5037407;27;98425;-74
2023/05/16 09:41:58;;;;;;;1.75;0.88;;;;;;;24.42;41.25;102063.44;5042874;27;96925;-73
2023/05/16 09:44:25;;;;;;;2.28;0.90;;;;;;;24.41;41.36;102070.81;5032776;27;96941;-73
2023/05/16 09:46:54;;;;;;;3.05;0.90;;;;;;;24.42;41.42;102061.53;5034275;27;97792;-73
2023/05/16 09:49:21;;;;;;;1.77;0.68;;;;;;;24.41;41.46;102057.06;5034260;27;96824;-73
2023/05/16 09:51:47;;;;;;;2.05;0.80;;;;;;;24.42;41.78;102058.78;5035051;27;96704;-73
2023/05/16 09:54:14;;;;;;;2.28;0.80;;;;;;;24.42;41.20;102057.94;5033489;27;97005;-73
2023/05/16 09:56:49;;;;;;;3.95;0.90;;;;;;;24.43;41.54;102062.41;5036179;27;96764;-73
2023/05/16 09:59:15;;;;;;;;;;;;;;;24.37;41.30;102066.69;5051597;27;97862;-73
2023/05/16 10:01:42;;;;;;;2.58;0.93;;;;;;;24.36;41.27;102063.06;5061928;27;96884;-73
2023/05/16 10:04:12;;;;;;;2.65;1.00;;;;;;;24.38;41.32;102063.75;5032461;27;96850;-74
2023/05/16 10:06:41;;;;;;;2.10;0.93;;;;;;;24.39;41.36;102068.22;5033869;27;97335;-74
2023/05/16 10:09:11;;;;;;;2.45;1.00;;;;;;;24.40;41.39;102060.84;5043840;27;97542;-74
2023/05/16 10:11:42;;;;;;;2.55;0.75;;;;;;;24.40;41.13;102058.97;5038745;27;96773;-73
2023/05/16 10:14:10;;;;;;;1.30;0.57;;;;;;;24.40;41.23;102061.72;5039667;27;96717;-74
2023/05/16 10:16:42;;;;;;;2.90;1.15;;;;;;;24.41;41.23;102054.31;5040371;27;97840;-74
2023/05/16 10:19:10;;;;;;;2.40;0.80;;;;;;;24.40;41.31;102050.72;5039817;27;97446;-74
2023/05/16 10:21:39;;;;;;;2.20;0.88;;;;;;;24.41;41.07;102054.31;5038374;27;96945;-73
2023/05/16 10:24:10;;;;;;;2.42;0.80;;;;;;;24.42;41.20;102046.94;5042570;27;96764;-73
2023/05/16 10:26:37;;;;;;;2.90;1.00;;;;;;;24.42;41.18;102055.19;5045831;27;98693;-73
2023/05/16 10:29:04;;;;;;;2.08;0.88;;;;;;;24.41;40.98;102057.06;5056259;27;96920;-73
2023/05/16 10:31:31;;;;;;;2.45;0.93;;;;;;;24.41;41.16;102059.81;5049853;27;96779;-74
2023/05/16 10:33:59;;;;;;;2.75;0.95;;;;;;;24.42;41.01;102055.19;5046142;27;97126;-73
2023/05/16 10:36:25;;;;;;;1.45;0.60;;;;;;;24.42;41.28;102049.69;5037864;27;99592;-73
2023/05/16 10:38:53;;;;;;;3.67;1.15;;;;;;;24.41;40.99;102046.09;5043504;27;96833;-73
2023/05/16 10:41:20;;;;;;;2.15;0.90;;;;;;;24.42;40.81;102050.56;5038927;27;96742;-73
2023/05/16 10:43:57;;;;;;;2.30;0.73;;;;;;;24.42;40.95;102050.56;5041774;27;96881;-73
2023/05/16 10:46:26;;;;;;;2.63;0.73;;;;;;;24.42;40.86;102042.31;5037753;27;96925;-74
2023/05/16 10:48:53;;;;;;;2.17;0.90;;;;;;;24.42;40.91;102045.06;5041136;27;97222;-73
2023/05/16 10:51:37;;;;;;;3.25;0.80;;;;;;;24.42;40.94;102039.56;5037015;27;97076;-73
2023/05/16 10:54:10;;;;;;;3.70;1.10;;;;;;;24.42;40.61;102039.56;5036928;27;96834;-73
2023/05/16 10:56:37;;;;;;;3.42;0.90;;;;;;;24.40;40.92;102028.75;5037820;27;97826;-73
2023/05/16 10:59:21;;;;;;;1.92;0.80;;;;;;;24.42;40.70;102031.31;5043277;27;96905;-73
2023/05/16 11:01:52;;;;;;;3.03;1.10;;;;;;;24.42;40.64;102036.81;5032577;27;96824;-73
2023/05/16 11:04:19;;;;;;;3.35;1.00;;;;;;;24.41;41.01;102029.63;5039587;27;97082;-73
2023/05/16 11:06:50;;;;;;;2.00;0.70;;;;;;;24.42;40.74;102035.97;5052204;27;97191;-73
2023/05/16 11:09:22;;;;;;;2.33;0.90;;;;;;;24.42;40.93;102027.72;5053298;27;97512;-74
2023/05/16 11:11:59;;;;;;;3.30;1.00;;;;;;;24.43;40.81;102034.94;5052428;27;97276;-73
2023/05/16 11:14:42;;;;;;;1.52;0.60;;;;;;;24.43;40.63;102033.03;5049971;27;97158;-74
2023/05/16 11:17:14;;;;;;;2.15;1.00;;;;;;;24.42;40.54;102035.97;5027600;27;101061;-74
2023/05/16 11:19:50;;;;;;;1.65;0.60;;;;;;;24.43;40.67;102029.44;5042585;27;97324;-74
2023/05/16 11:22:20;;;;;;;2.10;0.85;;;;;;;24.41;40.64;102029.63;5052988;27;97024;-74
2023/05/16 11:24:51;;;;;;;2.58;0.90;;;;;;;24.43;40.57;102035.78;5043629;27;96811;-71
2023/05/16 11:27:24;;;;;;;2.08;1.05;;;;;;;24.43;40.52;102029.44;5038580;27;98117;-77
2023/05/16 11:29:53;;;;;;;3.50;0.95;;;;;;;24.44;40.44;102028.41;5045509;27;99579;-75